sensor_id;sensor_type;location;lat;lon;timestamp;P1;durP1;ratioP1;P2;durP2;ratioP2
20375;SDS011;10347;51.828;6.466;2023-05-10T00:00:07;3.92;;;3.63;;
20375;SDS011;10347;51.828;6.466;2023-05-10T00:02:34;3.17;;;2.97;;
20375;SDS011;10347;51.828;6.466;2023-05-10T00:04:59;3.25;;;3.03;;
20375;SDS011;10347;51.828;6.466;2023-05-10T00:07:25;2.67;;;2.50;;
20375;SDS011;10347;51.828;6.466;2023-05-10T00:09:50;2.50;;;2.30;;
20375;SDS011;10347;51.828;6.466;2023-05-10T00:12:16;1.95;;;1.85;;
20375;SDS011;10347;51.828;6.466;2023-05-10T00:14:42;1.90;;;1.80;;
20375;SDS011;10347;51.828;6.466;2023-05-10T00:17:07;1.80;;;1.70;;
20375;SDS011;10347;51.828;6.466;2023-05-10T00:19:33;2.15;;;1.95;;
20375;SDS011;10347;51.828;6.466;2023-05-10T00:21:58;2.30;;;2.20;;
20375;SDS011;10347;51.828;6.466;2023-05-10T00:24:24;2.55;;;2.15;;
20375;SDS011;10347;51.828;6.466;2023-05-10T00:26:50;1.98;;;1.88;;
20375;SDS011;10347;51.828;6.466;2023-05-10T00:29:15;2.60;;;2.40;;
20375;SDS011;10347;51.828;6.466;2023-05-10T00:31:41;2.00;;;1.90;;
20375;SDS011;10347;51.828;6.466;2023-05-10T00:34:06;1.98;;;1.88;;
20375;SDS011;10347;51.828;6.466;2023-05-10T00:36:32;1.65;;;1.65;;
20375;SDS011;10347;51.828;6.466;2023-05-10T00:38:57;1.83;;;1.73;;
20375;SDS011;10347;51.828;6.466;2023-05-10T00:41:23;2.15;;;2.03;;
20375;SDS011;10347;51.828;6.466;2023-05-10T00:43:49;2.28;;;2.17;;
20375;SDS011;10347;51.828;6.466;2023-05-10T00:46:14;2.10;;;2.00;;
20375;SDS011;10347;51.828;6.466;2023-05-10T00:48:40;2.30;;;2.20;;
20375;SDS011;10347;51.828;6.466;2023-05-10T00:51:06;2.22;;;2.13;;
20375;SDS011;10347;51.828;6.466;2023-05-10T00:53:32;2.75;;;2.55;;
20375;SDS011;10347;51.828;6.466;2023-05-10T00:55:59;2.97;;;2.78;;
20375;SDS011;10347;51.828;6.466;2023-05-10T00:58:26;3.45;;;3.15;;
20375;SDS011;10347;51.828;6.466;2023-05-10T01:00:53;4.00;;;3.60;;
20375;SDS011;10347;51.828;6.466;2023-05-10T01:03:21;4.80;;;4.32;;
20375;SDS011;10347;51.828;6.466;2023-05-10T01:05:46;6.22;;;5.30;;
20375;SDS011;10347;51.828;6.466;2023-05-10T01:08:12;7.43;;;6.13;;
20375;SDS011;10347;51.828;6.466;2023-05-10T01:10:38;7.25;;;6.30;;
20375;SDS011;10347;51.828;6.466;2023-05-10T01:13:03;7.00;;;6.30;;
20375;SDS011;10347;51.828;6.466;2023-05-10T01:15:29;7.07;;;5.95;;
20375;SDS011;10347;51.828;6.466;2023-05-10T01:17:56;9.70;;;7.07;;
20375;SDS011;10347;51.828;6.466;2023-05-10T01:20:21;8.13;;;7.25;;
20375;SDS011;10347;51.828;6.466;2023-05-10T01:28:26;8.52;;;7.07;;
20375;SDS011;10347;51.828;6.466;2023-05-10T01:34:30;8.63;;;7.40;;
20375;SDS011;10347;51.828;6.466;2023-05-10T01:37:15;9.75;;;7.88;;
20375;SDS011;10347;51.828;6.466;2023-05-10T01:42:21;14.05;;;10.25;;
20375;SDS011;10347;51.828;6.466;2023-05-10T01:47:38;18.17;;;11.68;;
20375;SDS011;10347;51.828;6.466;2023-05-10T01:50:09;14.70;;;10.13;;
20375;SDS011;10347;51.828;6.466;2023-05-10T01:52:44;16.75;;;11.75;;
20375;SDS011;10347;51.828;6.466;2023-05-10T01:55:18;22.85;;;13.77;;
20375;SDS011;10347;51.828;6.466;2023-05-10T01:57:46;22.13;;;13.45;;
20375;SDS011;10347;51.828;6.466;2023-05-10T02:00:15;20.65;;;13.98;;
20375;SDS011;10347;51.828;6.466;2023-05-10T02:02:44;18.52;;;13.00;;
20375;SDS011;10347;51.828;6.466;2023-05-10T02:05:13;21.65;;;13.95;;
20375;SDS011;10347;51.828;6.466;2023-05-10T02:07:40;20.00;;;13.70;;
20375;SDS011;10347;51.828;6.466;2023-05-10T02:10:06;19.30;;;12.75;;
20375;SDS011;10347;51.828;6.466;2023-05-10T02:12:39;22.48;;;14.63;;
20375;SDS011;10347;51.828;6.466;2023-05-10T02:15:08;23.95;;;15.38;;
20375;SDS011;10347;51.828;6.466;2023-05-10T02:17:35;22.27;;;14.27;;
20375;SDS011;10347;51.828;6.466;2023-05-10T02:20:03;21.45;;;14.32;;
20375;SDS011;10347;51.828;6.466;2023-05-10T02:22:31;23.13;;;14.95;;
20375;SDS011;10347;51.828;6.466;2023-05-10T02:24:58;29.15;;;16.70;;
20375;SDS011;10347;51.828;6.466;2023-05-10T02:27:25;30.92;;;18.90;;
20375;SDS011;10347;51.828;6.466;2023-05-10T02:29:52;23.58;;;16.05;;
20375;SDS011;10347;51.828;6.466;2023-05-10T02:32:19;23.92;;;14.90;;
20375;SDS011;10347;51.828;6.466;2023-05-10T02:34:47;26.13;;;16.35;;
20375;SDS011;10347;51.828;6.466;2023-05-10T02:37:17;30.58;;;17.63;;
20375;SDS011;10347;51.828;6.466;2023-05-10T02:39:45;27.73;;;17.40;;
20375;SDS011;10347;51.828;6.466;2023-05-10T02:42:16;28.30;;;17.48;;
20375;SDS011;10347;51.828;6.466;2023-05-10T02:44:45;27.27;;;18.13;;
20375;SDS011;10347;51.828;6.466;2023-05-10T02:47:13;25.95;;;16.88;;
20375;SDS011;10347;51.828;6.466;2023-05-10T02:49:39;27.80;;;17.23;;
20375;SDS011;10347;51.828;6.466;2023-05-10T02:52:05;25.85;;;17.45;;
20375;SDS011;10347;51.828;6.466;2023-05-10T02:54:33;26.63;;;17.70;;
20375;SDS011;10347;51.828;6.466;2023-05-10T02:57:09;34.08;;;20.30;;
20375;SDS011;10347;51.828;6.466;2023-05-10T02:59:40;29.65;;;17.27;;
20375;SDS011;10347;51.828;6.466;2023-05-10T03:02:07;28.75;;;18.20;;
20375;SDS011;10347;51.828;6.466;2023-05-10T03:04:34;27.00;;;18.25;;
20375;SDS011;10347;51.828;6.466;2023-05-10T03:07:00;28.90;;;18.38;;
20375;SDS011;10347;51.828;6.466;2023-05-10T03:09:26;31.60;;;18.88;;
20375;SDS011;10347;51.828;6.466;2023-05-10T03:12:04;27.08;;;18.35;;
20375;SDS011;10347;51.828;6.466;2023-05-10T03:14:45;23.83;;;16.58;;
20375;SDS011;10347;51.828;6.466;2023-05-10T03:20:26;24.05;;;16.08;;
20375;SDS011;10347;51.828;6.466;2023-05-10T03:22:55;25.13;;;17.00;;
20375;SDS011;10347;51.828;6.466;2023-05-10T03:25:32;29.00;;;18.73;;
20375;SDS011;10347;51.828;6.466;2023-05-10T03:27:59;32.17;;;20.23;;
20375;SDS011;10347;51.828;6.466;2023-05-10T03:30:27;26.63;;;17.67;;
20375;SDS011;10347;51.828;6.466;2023-05-10T03:32:54;29.48;;;18.02;;
20375;SDS011;10347;51.828;6.466;2023-05-10T03:35:19;26.95;;;17.52;;
20375;SDS011;10347;51.828;6.466;2023-05-10T03:37:45;29.10;;;18.30;;
20375;SDS011;10347;51.828;6.466;2023-05-10T03:40:10;28.92;;;17.95;;
20375;SDS011;10347;51.828;6.466;2023-05-10T03:42:36;29.60;;;19.23;;
20375;SDS011;10347;51.828;6.466;2023-05-10T03:45:02;31.65;;;19.23;;
20375;SDS011;10347;51.828;6.466;2023-05-10T03:47:27;30.02;;;18.77;;
20375;SDS011;10347;51.828;6.466;2023-05-10T03:49:54;29.15;;;18.65;;
20375;SDS011;10347;51.828;6.466;2023-05-10T03:52:20;27.23;;;18.35;;
20375;SDS011;10347;51.828;6.466;2023-05-10T03:54:45;26.85;;;17.92;;
20375;SDS011;10347;51.828;6.466;2023-05-10T03:57:11;26.60;;;18.33;;
20375;SDS011;10347;51.828;6.466;2023-05-10T03:59:36;26.95;;;17.77;;
20375;SDS011;10347;51.828;6.466;2023-05-10T04:02:02;35.30;;;22.45;;
20375;SDS011;10347;51.828;6.466;2023-05-10T04:04:27;31.27;;;20.13;;
20375;SDS011;10347;51.828;6.466;2023-05-10T04:06:53;36.80;;;22.30;;
20375;SDS011;10347;51.828;6.466;2023-05-10T04:09:19;36.17;;;23.13;;
20375;SDS011;10347;51.828;6.466;2023-05-10T04:11:45;33.22;;;21.25;;
20375;SDS011;10347;51.828;6.466;2023-05-10T04:14:10;33.33;;;20.58;;
20375;SDS011;10347;51.828;6.466;2023-05-10T04:16:36;32.20;;;20.58;;
20375;SDS011;10347;51.828;6.466;2023-05-10T04:19:01;32.80;;;20.42;;
20375;SDS011;10347;51.828;6.466;2023-05-10T04:21:27;39.35;;;23.38;;
20375;SDS011;10347;51.828;6.466;2023-05-10T04:23:53;43.20;;;23.30;;
20375;SDS011;10347;51.828;6.466;2023-05-10T04:26:18;34.50;;;21.45;;
20375;SDS011;10347;51.828;6.466;2023-05-10T04:28:45;36.30;;;22.17;;
20375;SDS011;10347;51.828;6.466;2023-05-10T04:31:10;38.55;;;22.20;;
20375;SDS011;10347;51.828;6.466;2023-05-10T04:33:36;35.47;;;21.33;;
20375;SDS011;10347;51.828;6.466;2023-05-10T04:36:02;34.92;;;21.88;;
20375;SDS011;10347;51.828;6.466;2023-05-10T04:38:28;32.40;;;20.80;;
20375;SDS011;10347;51.828;6.466;2023-05-10T04:40:54;46.13;;;24.75;;
20375;SDS011;10347;51.828;6.466;2023-05-10T04:43:28;35.60;;;22.17;;
20375;SDS011;10347;51.828;6.466;2023-05-10T04:45:55;42.55;;;24.00;;
20375;SDS011;10347;51.828;6.466;2023-05-10T04:48:21;37.35;;;22.23;;
20375;SDS011;10347;51.828;6.466;2023-05-10T04:50:47;41.72;;;24.08;;
20375;SDS011;10347;51.828;6.466;2023-05-10T04:53:12;38.78;;;22.85;;
20375;SDS011;10347;51.828;6.466;2023-05-10T04:55:38;37.83;;;22.50;;
20375;SDS011;10347;51.828;6.466;2023-05-10T04:58:03;39.97;;;22.60;;
20375;SDS011;10347;51.828;6.466;2023-05-10T05:00:29;37.20;;;21.70;;
20375;SDS011;10347;51.828;6.466;2023-05-10T05:02:55;36.30;;;21.73;;
20375;SDS011;10347;51.828;6.466;2023-05-10T05:05:20;43.72;;;22.33;;
20375;SDS011;10347;51.828;6.466;2023-05-10T05:07:46;38.40;;;22.08;;
20375;SDS011;10347;51.828;6.466;2023-05-10T05:10:11;38.28;;;21.60;;
20375;SDS011;10347;51.828;6.466;2023-05-10T05:12:37;42.80;;;24.27;;
20375;SDS011;10347;51.828;6.466;2023-05-10T05:15:03;39.72;;;23.20;;
20375;SDS011;10347;51.828;6.466;2023-05-10T05:17:32;40.22;;;22.60;;
20375;SDS011;10347;51.828;6.466;2023-05-10T05:19:57;39.78;;;22.48;;
20375;SDS011;10347;51.828;6.466;2023-05-10T05:22:23;38.00;;;22.50;;
20375;SDS011;10347;51.828;6.466;2023-05-10T05:24:54;42.53;;;24.20;;
20375;SDS011;10347;51.828;6.466;2023-05-10T05:27:21;39.95;;;22.45;;
20375;SDS011;10347;51.828;6.466;2023-05-10T05:29:49;39.10;;;22.73;;
20375;SDS011;10347;51.828;6.466;2023-05-10T05:32:18;36.80;;;20.88;;
20375;SDS011;10347;51.828;6.466;2023-05-10T05:34:44;35.17;;;21.65;;
20375;SDS011;10347;51.828;6.466;2023-05-10T05:37:14;34.90;;;20.45;;
20375;SDS011;10347;51.828;6.466;2023-05-10T05:39:40;38.80;;;22.63;;
20375;SDS011;10347;51.828;6.466;2023-05-10T05:42:07;37.95;;;21.58;;
20375;SDS011;10347;51.828;6.466;2023-05-10T05:44:33;49.15;;;25.35;;
20375;SDS011;10347;51.828;6.466;2023-05-10T05:46:59;39.38;;;23.05;;
20375;SDS011;10347;51.828;6.466;2023-05-10T05:49:24;41.60;;;22.85;;
20375;SDS011;10347;51.828;6.466;2023-05-10T05:51:50;40.75;;;22.85;;
20375;SDS011;10347;51.828;6.466;2023-05-10T05:54:15;40.35;;;23.13;;
20375;SDS011;10347;51.828;6.466;2023-05-10T05:56:41;44.10;;;24.13;;
20375;SDS011;10347;51.828;6.466;2023-05-10T05:59:07;48.45;;;24.83;;
20375;SDS011;10347;51.828;6.466;2023-05-10T06:01:33;44.00;;;23.52;;
20375;SDS011;10347;51.828;6.466;2023-05-10T06:03:58;40.08;;;23.00;;
20375;SDS011;10347;51.828;6.466;2023-05-10T06:06:24;46.45;;;25.00;;
20375;SDS011;10347;51.828;6.466;2023-05-10T06:08:49;37.47;;;22.05;;
20375;SDS011;10347;51.828;6.466;2023-05-10T06:11:15;37.88;;;21.63;;
20375;SDS011;10347;51.828;6.466;2023-05-10T06:13:40;39.95;;;22.65;;
20375;SDS011;10347;51.828;6.466;2023-05-10T06:16:07;36.55;;;19.98;;
20375;SDS011;10347;51.828;6.466;2023-05-10T06:18:33;38.63;;;21.88;;
20375;SDS011;10347;51.828;6.466;2023-05-10T06:20:59;34.22;;;21.20;;
20375;SDS011;10347;51.828;6.466;2023-05-10T06:23:24;31.50;;;20.30;;
20375;SDS011;10347;51.828;6.466;2023-05-10T06:25:50;35.97;;;20.55;;
20375;SDS011;10347;51.828;6.466;2023-05-10T06:28:16;37.40;;;21.02;;
20375;SDS011;10347;51.828;6.466;2023-05-10T06:30:42;35.20;;;20.75;;
20375;SDS011;10347;51.828;6.466;2023-05-10T06:33:08;36.70;;;22.30;;
20375;SDS011;10347;51.828;6.466;2023-05-10T06:35:33;37.42;;;22.23;;
20375;SDS011;10347;51.828;6.466;2023-05-10T06:37:59;41.60;;;23.27;;
20375;SDS011;10347;51.828;6.466;2023-05-10T06:40:25;36.83;;;22.15;;
20375;SDS011;10347;51.828;6.466;2023-05-10T06:42:51;34.25;;;20.48;;
20375;SDS011;10347;51.828;6.466;2023-05-10T06:45:16;36.17;;;21.05;;
20375;SDS011;10347;51.828;6.466;2023-05-10T06:47:42;34.95;;;21.75;;
20375;SDS011;10347;51.828;6.466;2023-05-10T06:50:08;36.15;;;21.77;;
20375;SDS011;10347;51.828;6.466;2023-05-10T06:52:36;35.03;;;19.75;;
20375;SDS011;10347;51.828;6.466;2023-05-10T06:55:02;35.28;;;21.20;;
20375;SDS011;10347;51.828;6.466;2023-05-10T06:57:28;38.90;;;24.23;;
20375;SDS011;10347;51.828;6.466;2023-05-10T06:59:54;39.88;;;22.00;;
20375;SDS011;10347;51.828;6.466;2023-05-10T07:02:21;38.75;;;21.20;;
20375;SDS011;10347;51.828;6.466;2023-05-10T07:04:47;39.85;;;23.40;;
20375;SDS011;10347;51.828;6.466;2023-05-10T07:07:13;40.30;;;23.38;;
20375;SDS011;10347;51.828;6.466;2023-05-10T07:09:39;31.33;;;19.55;;
20375;SDS011;10347;51.828;6.466;2023-05-10T07:12:05;37.08;;;20.45;;
20375;SDS011;10347;51.828;6.466;2023-05-10T07:14:30;37.20;;;21.70;;
20375;SDS011;10347;51.828;6.466;2023-05-10T07:16:56;30.58;;;18.83;;
20375;SDS011;10347;51.828;6.466;2023-05-10T07:19:22;37.30;;;22.20;;
20375;SDS011;10347;51.828;6.466;2023-05-10T07:21:47;33.50;;;20.17;;
20375;SDS011;10347;51.828;6.466;2023-05-10T07:24:13;29.38;;;19.10;;
20375;SDS011;10347;51.828;6.466;2023-05-10T07:26:38;31.60;;;19.13;;
20375;SDS011;10347;51.828;6.466;2023-05-10T07:29:04;38.08;;;21.55;;
20375;SDS011;10347;51.828;6.466;2023-05-10T07:31:30;30.92;;;19.88;;
20375;SDS011;10347;51.828;6.466;2023-05-10T07:33:55;36.88;;;20.90;;
20375;SDS011;10347;51.828;6.466;2023-05-10T07:36:21;32.13;;;18.92;;
20375;SDS011;10347;51.828;6.466;2023-05-10T07:38:47;30.30;;;18.15;;
20375;SDS011;10347;51.828;6.466;2023-05-10T07:41:12;29.48;;;18.17;;
20375;SDS011;10347;51.828;6.466;2023-05-10T07:43:38;26.30;;;16.67;;
20375;SDS011;10347;51.828;6.466;2023-05-10T07:46:03;27.02;;;16.73;;
20375;SDS011;10347;51.828;6.466;2023-05-10T07:48:29;29.67;;;16.73;;
20375;SDS011;10347;51.828;6.466;2023-05-10T07:50:54;30.65;;;17.60;;
20375;SDS011;10347;51.828;6.466;2023-05-10T07:53:20;27.67;;;16.85;;
20375;SDS011;10347;51.828;6.466;2023-05-10T07:55:53;22.27;;;14.73;;
20375;SDS011;10347;51.828;6.466;2023-05-10T07:58:22;21.15;;;13.93;;
20375;SDS011;10347;51.828;6.466;2023-05-10T08:00:48;22.17;;;14.30;;
20375;SDS011;10347;51.828;6.466;2023-05-10T08:03:14;21.17;;;13.90;;
20375;SDS011;10347;51.828;6.466;2023-05-10T08:05:40;26.77;;;15.85;;
20375;SDS011;10347;51.828;6.466;2023-05-10T08:08:05;24.45;;;14.68;;
20375;SDS011;10347;51.828;6.466;2023-05-10T08:10:31;20.50;;;13.82;;
20375;SDS011;10347;51.828;6.466;2023-05-10T08:12:57;22.80;;;14.70;;
20375;SDS011;10347;51.828;6.466;2023-05-10T08:15:23;23.83;;;15.27;;
20375;SDS011;10347;51.828;6.466;2023-05-10T08:17:50;24.17;;;15.43;;
20375;SDS011;10347;51.828;6.466;2023-05-10T08:20:16;27.73;;;17.13;;
20375;SDS011;10347;51.828;6.466;2023-05-10T08:22:43;25.95;;;15.85;;
20375;SDS011;10347;51.828;6.466;2023-05-10T08:25:12;24.88;;;16.25;;
20375;SDS011;10347;51.828;6.466;2023-05-10T08:27:37;25.17;;;15.88;;
20375;SDS011;10347;51.828;6.466;2023-05-10T08:30:03;25.35;;;15.93;;
20375;SDS011;10347;51.828;6.466;2023-05-10T08:32:29;30.02;;;17.25;;
20375;SDS011;10347;51.828;6.466;2023-05-10T08:34:55;23.20;;;14.90;;
20375;SDS011;10347;51.828;6.466;2023-05-10T08:37:22;23.17;;;13.95;;
20375;SDS011;10347;51.828;6.466;2023-05-10T08:39:48;26.90;;;15.15;;
20375;SDS011;10347;51.828;6.466;2023-05-10T08:42:13;26.35;;;16.45;;
20375;SDS011;10347;51.828;6.466;2023-05-10T08:44:44;24.77;;;14.77;;
20375;SDS011;10347;51.828;6.466;2023-05-10T08:47:10;22.20;;;13.93;;
20375;SDS011;10347;51.828;6.466;2023-05-10T08:49:38;24.58;;;15.20;;
20375;SDS011;10347;51.828;6.466;2023-05-10T08:52:04;20.40;;;12.88;;
20375;SDS011;10347;51.828;6.466;2023-05-10T08:54:32;27.08;;;15.63;;
20375;SDS011;10347;51.828;6.466;2023-05-10T08:56:58;22.85;;;14.50;;
20375;SDS011;10347;51.828;6.466;2023-05-10T08:59:24;21.77;;;14.15;;
20375;SDS011;10347;51.828;6.466;2023-05-10T09:01:49;21.38;;;13.18;;
20375;SDS011;10347;51.828;6.466;2023-05-10T09:04:16;18.50;;;11.30;;
20375;SDS011;10347;51.828;6.466;2023-05-10T09:06:41;18.08;;;11.77;;
20375;SDS011;10347;51.828;6.466;2023-05-10T09:09:07;19.73;;;11.88;;
20375;SDS011;10347;51.828;6.466;2023-05-10T09:11:33;21.05;;;13.07;;
20375;SDS011;10347;51.828;6.466;2023-05-10T09:13:59;23.90;;;14.13;;
20375;SDS011;10347;51.828;6.466;2023-05-10T09:16:26;20.98;;;12.50;;
20375;SDS011;10347;51.828;6.466;2023-05-10T09:18:51;20.67;;;12.35;;
20375;SDS011;10347;51.828;6.466;2023-05-10T09:21:17;21.50;;;12.35;;
20375;SDS011;10347;51.828;6.466;2023-05-10T09:23:44;19.50;;;12.82;;
20375;SDS011;10347;51.828;6.466;2023-05-10T09:26:11;21.83;;;13.88;;
20375;SDS011;10347;51.828;6.466;2023-05-10T09:28:53;22.73;;;13.40;;
20375;SDS011;10347;51.828;6.466;2023-05-10T09:31:20;22.25;;;14.60;;
20375;SDS011;10347;51.828;6.466;2023-05-10T09:33:47;27.20;;;14.63;;
20375;SDS011;10347;51.828;6.466;2023-05-10T09:36:13;22.25;;;13.57;;
20375;SDS011;10347;51.828;6.466;2023-05-10T09:38:49;20.13;;;13.13;;
20375;SDS011;10347;51.828;6.466;2023-05-10T09:41:21;25.55;;;14.48;;
20375;SDS011;10347;51.828;6.466;2023-05-10T09:43:48;28.02;;;15.32;;
20375;SDS011;10347;51.828;6.466;2023-05-10T09:46:14;29.80;;;16.42;;
20375;SDS011;10347;51.828;6.466;2023-05-10T09:48:44;23.40;;;14.32;;
20375;SDS011;10347;51.828;6.466;2023-05-10T09:51:18;25.77;;;14.57;;
20375;SDS011;10347;51.828;6.466;2023-05-10T09:53:45;20.65;;;14.18;;
20375;SDS011;10347;51.828;6.466;2023-05-10T09:56:11;27.85;;;15.75;;
20375;SDS011;10347;51.828;6.466;2023-05-10T09:58:36;26.17;;;15.75;;
20375;SDS011;10347;51.828;6.466;2023-05-10T10:01:05;29.23;;;16.88;;
20375;SDS011;10347;51.828;6.466;2023-05-10T10:03:40;23.95;;;14.48;;
20375;SDS011;10347;51.828;6.466;2023-05-10T10:06:07;20.90;;;14.38;;
20375;SDS011;10347;51.828;6.466;2023-05-10T10:08:33;25.73;;;15.90;;
20375;SDS011;10347;51.828;6.466;2023-05-10T10:10:59;24.98;;;15.77;;
20375;SDS011;10347;51.828;6.466;2023-05-10T10:13:26;21.80;;;14.80;;
20375;SDS011;10347;51.828;6.466;2023-05-10T10:15:52;27.58;;;16.30;;
20375;SDS011;10347;51.828;6.466;2023-05-10T10:18:19;26.85;;;15.52;;
20375;SDS011;10347;51.828;6.466;2023-05-10T10:20:51;24.73;;;15.48;;
20375;SDS011;10347;51.828;6.466;2023-05-10T10:23:18;23.95;;;15.65;;
20375;SDS011;10347;51.828;6.466;2023-05-10T10:25:44;25.25;;;15.65;;
20375;SDS011;10347;51.828;6.466;2023-05-10T10:28:26;26.92;;;16.63;;
20375;SDS011;10347;51.828;6.466;2023-05-10T10:33:54;29.02;;;17.15;;
20375;SDS011;10347;51.828;6.466;2023-05-10T10:36:24;24.05;;;16.55;;
20375;SDS011;10347;51.828;6.466;2023-05-10T10:41:38;29.70;;;18.88;;
20375;SDS011;10347;51.828;6.466;2023-05-10T10:50:21;30.48;;;18.35;;
20375;SDS011;10347;51.828;6.466;2023-05-10T10:55:06;29.85;;;18.48;;
20375;SDS011;10347;51.828;6.466;2023-05-10T11:02:59;27.77;;;18.17;;
20375;SDS011;10347;51.828;6.466;2023-05-10T11:05:36;23.55;;;15.48;;
20375;SDS011;10347;51.828;6.466;2023-05-10T11:08:13;26.23;;;17.08;;
20375;SDS011;10347;51.828;6.466;2023-05-10T11:10:49;23.48;;;15.35;;
20375;SDS011;10347;51.828;6.466;2023-05-10T11:13:39;24.10;;;15.65;;
20375;SDS011;10347;51.828;6.466;2023-05-10T11:16:22;26.27;;;17.90;;
20375;SDS011;10347;51.828;6.466;2023-05-10T11:19:05;28.20;;;16.63;;
20375;SDS011;10347;51.828;6.466;2023-05-10T11:21:33;30.77;;;17.33;;
20375;SDS011;10347;51.828;6.466;2023-05-10T11:24:12;27.75;;;17.85;;
20375;SDS011;10347;51.828;6.466;2023-05-10T11:26:39;23.10;;;15.52;;
20375;SDS011;10347;51.828;6.466;2023-05-10T11:29:05;23.75;;;15.00;;
20375;SDS011;10347;51.828;6.466;2023-05-10T11:31:50;24.85;;;15.35;;
20375;SDS011;10347;51.828;6.466;2023-05-10T11:34:23;20.33;;;13.77;;
20375;SDS011;10347;51.828;6.466;2023-05-10T11:36:55;19.90;;;13.15;;
20375;SDS011;10347;51.828;6.466;2023-05-10T11:39:25;24.02;;;14.40;;
20375;SDS011;10347;51.828;6.466;2023-05-10T11:41:52;17.88;;;12.35;;
20375;SDS011;10347;51.828;6.466;2023-05-10T11:44:18;20.20;;;12.43;;
20375;SDS011;10347;51.828;6.466;2023-05-10T11:46:43;18.58;;;11.27;;
20375;SDS011;10347;51.828;6.466;2023-05-10T11:49:09;16.67;;;10.65;;
20375;SDS011;10347;51.828;6.466;2023-05-10T11:51:35;15.57;;;10.30;;
20375;SDS011;10347;51.828;6.466;2023-05-10T11:54:04;16.15;;;10.00;;
20375;SDS011;10347;51.828;6.466;2023-05-10T11:56:32;14.70;;;9.90;;
20375;SDS011;10347;51.828;6.466;2023-05-10T11:58:58;15.48;;;9.25;;
20375;SDS011;10347;51.828;6.466;2023-05-10T12:01:25;10.88;;;8.00;;
20375;SDS011;10347;51.828;6.466;2023-05-10T12:03:52;13.38;;;9.23;;
20375;SDS011;10347;51.828;6.466;2023-05-10T12:06:19;12.85;;;8.73;;
20375;SDS011;10347;51.828;6.466;2023-05-10T12:08:46;13.38;;;9.38;;
20375;SDS011;10347;51.828;6.466;2023-05-10T12:11:12;16.85;;;9.98;;
20375;SDS011;10347;51.828;6.466;2023-05-10T12:13:40;13.55;;;9.10;;
20375;SDS011;10347;51.828;6.466;2023-05-10T12:18:40;13.18;;;8.55;;
20375;SDS011;10347;51.828;6.466;2023-05-10T12:21:07;10.20;;;7.68;;
20375;SDS011;10347;51.828;6.466;2023-05-10T12:23:35;14.25;;;9.60;;
20375;SDS011;10347;51.828;6.466;2023-05-10T12:26:01;20.55;;;9.23;;
20375;SDS011;10347;51.828;6.466;2023-05-10T12:28:31;12.82;;;8.38;;
20375;SDS011;10347;51.828;6.466;2023-05-10T12:30:58;15.85;;;9.48;;
20375;SDS011;10347;51.828;6.466;2023-05-10T12:33:24;12.73;;;8.65;;
20375;SDS011;10347;51.828;6.466;2023-05-10T12:35:54;12.95;;;9.05;;
20375;SDS011;10347;51.828;6.466;2023-05-10T12:38:35;12.90;;;9.63;;
20375;SDS011;10347;51.828;6.466;2023-05-10T12:41:03;13.20;;;8.85;;
20375;SDS011;10347;51.828;6.466;2023-05-10T12:43:34;13.77;;;9.32;;
20375;SDS011;10347;51.828;6.466;2023-05-10T12:46:18;14.55;;;9.77;;
20375;SDS011;10347;51.828;6.466;2023-05-10T12:48:44;17.42;;;10.25;;
20375;SDS011;10347;51.828;6.466;2023-05-10T12:51:12;17.50;;;10.52;;
20375;SDS011;10347;51.828;6.466;2023-05-10T12:53:40;15.88;;;10.57;;
20375;SDS011;10347;51.828;6.466;2023-05-10T12:56:06;15.48;;;9.77;;
20375;SDS011;10347;51.828;6.466;2023-05-10T12:58:31;16.75;;;11.02;;
20375;SDS011;10347;51.828;6.466;2023-05-10T13:00:57;14.70;;;10.52;;
20375;SDS011;10347;51.828;6.466;2023-05-10T13:03:24;14.65;;;9.68;;
20375;SDS011;10347;51.828;6.466;2023-05-10T13:05:49;15.10;;;10.15;;
20375;SDS011;10347;51.828;6.466;2023-05-10T13:08:15;14.98;;;10.40;;
20375;SDS011;10347;51.828;6.466;2023-05-10T13:10:40;16.00;;;10.30;;
20375;SDS011;10347;51.828;6.466;2023-05-10T13:13:06;18.20;;;12.02;;
20375;SDS011;10347;51.828;6.466;2023-05-10T13:15:33;19.23;;;12.25;;
20375;SDS011;10347;51.828;6.466;2023-05-10T13:17:59;17.52;;;9.50;;
20375;SDS011;10347;51.828;6.466;2023-05-10T13:20:25;15.90;;;10.82;;
20375;SDS011;10347;51.828;6.466;2023-05-10T13:22:50;15.55;;;10.40;;
20375;SDS011;10347;51.828;6.466;2023-05-10T13:25:16;13.57;;;9.73;;
20375;SDS011;10347;51.828;6.466;2023-05-10T13:27:42;15.15;;;9.93;;
20375;SDS011;10347;51.828;6.466;2023-05-10T13:30:08;14.75;;;9.57;;
20375;SDS011;10347;51.828;6.466;2023-05-10T13:32:34;12.38;;;9.43;;
20375;SDS011;10347;51.828;6.466;2023-05-10T13:35:00;19.33;;;11.65;;
20375;SDS011;10347;51.828;6.466;2023-05-10T13:37:28;15.40;;;10.27;;
20375;SDS011;10347;51.828;6.466;2023-05-10T13:39:56;14.00;;;9.52;;
20375;SDS011;10347;51.828;6.466;2023-05-10T13:42:22;13.55;;;9.63;;
20375;SDS011;10347;51.828;6.466;2023-05-10T13:44:48;11.63;;;8.00;;
20375;SDS011;10347;51.828;6.466;2023-05-10T13:47:17;13.75;;;8.80;;
20375;SDS011;10347;51.828;6.466;2023-05-10T13:49:42;10.00;;;7.85;;
20375;SDS011;10347;51.828;6.466;2023-05-10T13:52:08;10.32;;;7.43;;
20375;SDS011;10347;51.828;6.466;2023-05-10T13:54:35;10.75;;;7.70;;
20375;SDS011;10347;51.828;6.466;2023-05-10T13:57:01;8.55;;;7.07;;
20375;SDS011;10347;51.828;6.466;2023-05-10T13:59:28;10.45;;;7.63;;
20375;SDS011;10347;51.828;6.466;2023-05-10T14:01:54;11.95;;;7.53;;
20375;SDS011;10347;51.828;6.466;2023-05-10T14:04:19;9.48;;;6.68;;
20375;SDS011;10347;51.828;6.466;2023-05-10T14:06:45;9.57;;;6.68;;
20375;SDS011;10347;51.828;6.466;2023-05-10T14:09:11;9.48;;;6.80;;
20375;SDS011;10347;51.828;6.466;2023-05-10T14:11:36;11.13;;;7.43;;
20375;SDS011;10347;51.828;6.466;2023-05-10T14:14:06;14.40;;;7.18;;
20375;SDS011;10347;51.828;6.466;2023-05-10T14:16:32;9.10;;;7.35;;
20375;SDS011;10347;51.828;6.466;2023-05-10T14:18:58;8.30;;;6.30;;
20375;SDS011;10347;51.828;6.466;2023-05-10T14:21:23;8.07;;;6.40;;
20375;SDS011;10347;51.828;6.466;2023-05-10T14:23:49;9.27;;;7.07;;
20375;SDS011;10347;51.828;6.466;2023-05-10T14:26:14;8.30;;;6.78;;
20375;SDS011;10347;51.828;6.466;2023-05-10T14:28:40;9.77;;;6.80;;
20375;SDS011;10347;51.828;6.466;2023-05-10T14:31:05;10.43;;;6.75;;
20375;SDS011;10347;51.828;6.466;2023-05-10T14:33:31;11.02;;;8.18;;
20375;SDS011;10347;51.828;6.466;2023-05-10T14:35:57;9.90;;;7.55;;
20375;SDS011;10347;51.828;6.466;2023-05-10T14:38:22;10.40;;;7.53;;
20375;SDS011;10347;51.828;6.466;2023-05-10T14:40:48;10.23;;;7.15;;
20375;SDS011;10347;51.828;6.466;2023-05-10T14:43:14;11.85;;;7.20;;
20375;SDS011;10347;51.828;6.466;2023-05-10T14:45:39;9.18;;;7.40;;
20375;SDS011;10347;51.828;6.466;2023-05-10T14:48:05;10.10;;;6.50;;
20375;SDS011;10347;51.828;6.466;2023-05-10T14:50:31;13.80;;;6.75;;
20375;SDS011;10347;51.828;6.466;2023-05-10T14:52:57;11.10;;;7.85;;
20375;SDS011;10347;51.828;6.466;2023-05-10T14:55:23;9.40;;;7.32;;
20375;SDS011;10347;51.828;6.466;2023-05-10T14:57:49;10.68;;;7.78;;
20375;SDS011;10347;51.828;6.466;2023-05-10T15:00:15;9.00;;;6.85;;
20375;SDS011;10347;51.828;6.466;2023-05-10T15:02:41;11.90;;;7.13;;
20375;SDS011;10347;51.828;6.466;2023-05-10T15:05:07;11.20;;;7.25;;